sensor_id;sensor_type;location;lat;lon;timestamp;pressure;altitude;pressure_sealevel;temperature;humidity
83492;BME280;73661;56.120;12.302;2024-01-27T00:01:51;101706.31;;;5.27;72.06
83492;BME280;73661;56.120;12.302;2024-01-27T00:04:17;101702.31;;;5.33;72.08
83492;BME280;73661;56.120;12.302;2024-01-27T00:06:42;101738.19;;;5.64;71.33
83492;BME280;73661;56.120;12.302;2024-01-27T00:09:08;101715.19;;;5.32;72.57
83492;BME280;73661;56.120;12.302;2024-01-27T00:11:34;101708.50;;;5.37;72.45
83492;BME280;73661;56.120;12.302;2024-01-27T00:14:00;101714.63;;;5.39;71.92
83492;BME280;73661;56.120;12.302;2024-01-27T00:16:26;101726.75;;;5.40;72.63
83492;BME280;73661;56.120;12.302;2024-01-27T00:18:51;101739.63;;;5.38;72.85
83492;BME280;73661;56.120;12.302;2024-01-27T00:21:17;101730.16;;;5.39;73.13
83492;BME280;73661;56.120;12.302;2024-01-27T00:23:43;101742.84;;;5.13;73.98
83492;BME280;73661;56.120;12.302;2024-01-27T00:26:09;101746.91;;;5.28;73.31
83492;BME280;73661;56.120;12.302;2024-01-27T00:28:34;101740.94;;;5.29;73.36
83492;BME280;73661;56.120;12.302;2024-01-27T00:31:00;101769.75;;;5.36;73.36
83492;BME280;73661;56.120;12.302;2024-01-27T00:33:26;101767.56;;;5.45;73.97
83492;BME280;73661;56.120;12.302;2024-01-27T00:35:52;101776.44;;;5.31;73.23
83492;BME280;73661;56.120;12.302;2024-01-27T00:38:17;101789.88;;;5.42;72.79
83492;BME280;73661;56.120;12.302;2024-01-27T00:40:43;101791.91;;;5.49;73.63
83492;BME280;73661;56.120;12.302;2024-01-27T00:43:09;101805.09;;;5.16;74.55
83492;BME280;73661;56.120;12.302;2024-01-27T00:45:35;101810.91;;;5.30;73.28
83492;BME280;73661;56.120;12.302;2024-01-27T00:48:01;101822.69;;;5.43;73.75
83492;BME280;73661;56.120;12.302;2024-01-27T00:50:26;101827.38;;;5.32;74.12
83492;BME280;73661;56.120;12.302;2024-01-27T00:52:52;101815.53;;;5.18;73.62
83492;BME280;73661;56.120;12.302;2024-01-27T00:55:18;101817.59;;;5.07;74.95
83492;BME280;73661;56.120;12.302;2024-01-27T00:57:44;101826.72;;;4.99;74.50
83492;BME280;73661;56.120;12.302;2024-01-27T01:00:10;101838.00;;;5.01;74.79
83492;BME280;73661;56.120;12.302;2024-01-27T01:02:37;101844.41;;;4.90;75.13
83492;BME280;73661;56.120;12.302;2024-01-27T01:05:03;101850.34;;;5.07;74.69
83492;BME280;73661;56.120;12.302;2024-01-27T01:07:30;101862.63;;;5.29;73.96
83492;BME280;73661;56.120;12.302;2024-01-27T01:09:56;101861.97;;;5.34;73.25
83492;BME280;73661;56.120;12.302;2024-01-27T01:12:22;101870.09;;;5.05;74.19
83492;BME280;73661;56.120;12.302;2024-01-27T01:14:49;101861.19;;;5.35;73.58
83492;BME280;73661;56.120;12.302;2024-01-27T01:17:15;101865.66;;;5.20;74.27
83492;BME280;73661;56.120;12.302;2024-01-27T01:19:41;101875.56;;;5.29;73.74
83492;BME280;73661;56.120;12.302;2024-01-27T01:22:07;101879.94;;;4.94;74.38
83492;BME280;73661;56.120;12.302;2024-01-27T01:24:33;101882.50;;;5.30;73.58
83492;BME280;73661;56.120;12.302;2024-01-27T01:26:59;101881.75;;;5.14;74.03
83492;BME280;73661;56.120;12.302;2024-01-27T01:29:25;101893.00;;;5.33;73.43
83492;BME280;73661;56.120;12.302;2024-01-27T01:31:52;101881.22;;;5.02;73.98
83492;BME280;73661;56.120;12.302;2024-01-27T01:34:17;101884.53;;;5.17;74.49
83492;BME280;73661;56.120;12.302;2024-01-27T01:36:43;101897.16;;;5.29;73.64
83492;BME280;73661;56.120;12.302;2024-01-27T01:39:10;101900.88;;;5.16;73.98
83492;BME280;73661;56.120;12.302;2024-01-27T01:41:36;101916.75;;;5.06;74.47
83492;BME280;73661;56.120;12.302;2024-01-27T01:44:02;101911.66;;;4.90;75.00
83492;BME280;73661;56.120;12.302;2024-01-27T01:46:28;101915.22;;;5.10;74.73
83492;BME280;73661;56.120;12.302;2024-01-27T01:48:54;101921.19;;;4.91;75.10
83492;BME280;73661;56.120;12.302;2024-01-27T01:51:20;101935.47;;;4.83;75.89
83492;BME280;73661;56.120;12.302;2024-01-27T01:53:48;101949.34;;;5.20;74.63
83492;BME280;73661;56.120;12.302;2024-01-27T01:56:15;101934.16;;;5.09;74.35
83492;BME280;73661;56.120;12.302;2024-01-27T01:58:41;101953.50;;;4.99;74.63
83492;BME280;73661;56.120;12.302;2024-01-27T02:01:08;101959.88;;;5.06;75.23
83492;BME280;73661;56.120;12.302;2024-01-27T02:03:34;101969.72;;;4.95;75.60
83492;BME280;73661;56.120;12.302;2024-01-27T02:06:00;101971.25;;;5.09;74.75
83492;BME280;73661;56.120;12.302;2024-01-27T02:08:26;101984.72;;;5.20;74.30
83492;BME280;73661;56.120;12.302;2024-01-27T02:10:51;101988.19;;;5.03;74.82
83492;BME280;73661;56.120;12.302;2024-01-27T02:13:21;101993.66;;;5.09;74.57
83492;BME280;73661;56.120;12.302;2024-01-27T02:15:48;101998.84;;;5.09;75.54
83492;BME280;73661;56.120;12.302;2024-01-27T02:18:15;102013.44;;;4.90;75.91
83492;BME280;73661;56.120;12.302;2024-01-27T02:20:41;102017.06;;;4.94;75.35
83492;BME280;73661;56.120;12.302;2024-01-27T02:23:07;102018.50;;;5.05;75.52
83492;BME280;73661;56.120;12.302;2024-01-27T02:25:34;102015.19;;;5.26;75.45
83492;BME280;73661;56.120;12.302;2024-01-27T02:28:01;102018.69;;;4.92;74.94
83492;BME280;73661;56.120;12.302;2024-01-27T02:30:28;102024.50;;;5.04;74.84
83492;BME280;73661;56.120;12.302;2024-01-27T02:32:56;102028.59;;;5.01;75.43
83492;BME280;73661;56.120;12.302;2024-01-27T02:35:22;102031.44;;;5.05;75.34
83492;BME280;73661;56.120;12.302;2024-01-27T02:37:48;102030.78;;;5.09;75.54
83492;BME280;73661;56.120;12.302;2024-01-27T02:40:14;102036.88;;;4.93;75.24
83492;BME280;73661;56.120;12.302;2024-01-27T02:42:40;102039.06;;;5.02;75.82
83492;BME280;73661;56.120;12.302;2024-01-27T02:45:10;102041.84;;;4.73;76.42
83492;BME280;73661;56.120;12.302;2024-01-27T02:47:39;102050.09;;;4.82;76.11
83492;BME280;73661;56.120;12.302;2024-01-27T02:50:05;102049.50;;;4.87;76.57
83492;BME280;73661;56.120;12.302;2024-01-27T02:52:34;102052.50;;;4.79;76.66
83492;BME280;73661;56.120;12.302;2024-01-27T02:55:00;102047.41;;;4.80;75.52
83492;BME280;73661;56.120;12.302;2024-01-27T02:57:26;102055.44;;;4.69;76.58
83492;BME280;73661;56.120;12.302;2024-01-27T02:59:52;102069.16;;;4.68;76.58
83492;BME280;73661;56.120;12.302;2024-01-27T03:02:18;102062.53;;;4.73;76.67
83492;BME280;73661;56.120;12.302;2024-01-27T03:04:43;102072.38;;;4.96;76.46
83492;BME280;73661;56.120;12.302;2024-01-27T03:07:09;102033.13;;;4.71;77.18
83492;BME280;73661;56.120;12.302;2024-01-27T03:09:35;102079.47;;;5.00;76.57
83492;BME280;73661;56.120;12.302;2024-01-27T03:12:01;102079.84;;;4.74;76.41
83492;BME280;73661;56.120;12.302;2024-01-27T03:14:27;102070.31;;;4.73;77.13
83492;BME280;73661;56.120;12.302;2024-01-27T03:16:54;102085.16;;;4.93;76.17
83492;BME280;73661;56.120;12.302;2024-01-27T03:19:20;102075.22;;;4.84;76.02
83492;BME280;73661;56.120;12.302;2024-01-27T03:21:45;102065.25;;;4.92;76.50
83492;BME280;73661;56.120;12.302;2024-01-27T03:24:11;102077.69;;;5.15;75.32
83492;BME280;73661;56.120;12.302;2024-01-27T03:26:37;102088.88;;;4.98;75.79
83492;BME280;73661;56.120;12.302;2024-01-27T03:29:03;102090.19;;;4.74;77.14
83492;BME280;73661;56.120;12.302;2024-01-27T03:31:32;102089.78;;;4.82;75.99
83492;BME280;73661;56.120;12.302;2024-01-27T03:33:59;102093.16;;;4.81;76.85
83492;BME280;73661;56.120;12.302;2024-01-27T03:36:25;102091.94;;;4.75;77.24
83492;BME280;73661;56.120;12.302;2024-01-27T03:38:51;102104.88;;;4.75;76.90
83492;BME280;73661;56.120;12.302;2024-01-27T03:41:17;102118.13;;;4.81;76.90
83492;BME280;73661;56.120;12.302;2024-01-27T03:43:43;102112.97;;;4.81;77.03
83492;BME280;73661;56.120;12.302;2024-01-27T03:46:08;102120.97;;;4.85;76.93
83492;BME280;73661;56.120;12.302;2024-01-27T03:48:34;102129.38;;;4.81;77.30
83492;BME280;73661;56.120;12.302;2024-01-27T03:51:03;102139.09;;;4.69;77.57
83492;BME280;73661;56.120;12.302;2024-01-27T03:53:29;102141.41;;;4.81;77.42
83492;BME280;73661;56.120;12.302;2024-01-27T03:55:55;102139.81;;;4.99;77.23
83492;BME280;73661;56.120;12.302;2024-01-27T03:58:28;102148.38;;;4.98;76.67
83492;BME280;73661;56.120;12.302;2024-01-27T04:00:53;102159.63;;;4.66;77.58
83492;BME280;73661;56.120;12.302;2024-01-27T04:03:19;102158.75;;;4.82;77.41
83492;BME280;73661;56.120;12.302;2024-01-27T04:05:45;102162.59;;;4.74;77.78
83492;BME280;73661;56.120;12.302;2024-01-27T04:08:11;102166.63;;;5.17;76.26
83492;BME280;73661;56.120;12.302;2024-01-27T04:10:37;102170.13;;;4.85;77.67
83492;BME280;73661;56.120;12.302;2024-01-27T04:13:03;102175.38;;;4.87;77.90
83492;BME280;73661;56.120;12.302;2024-01-27T04:15:29;102179.56;;;5.17;75.97
83492;BME280;73661;56.120;12.302;2024-01-27T04:17:55;102174.28;;;4.82;77.13
83492;BME280;73661;56.120;12.302;2024-01-27T04:20:21;102184.75;;;4.85;77.78
83492;BME280;73661;56.120;12.302;2024-01-27T04:22:47;102175.06;;;4.64;78.59
83492;BME280;73661;56.120;12.302;2024-01-27T04:25:13;102182.19;;;4.85;78.36
83492;BME280;73661;56.120;12.302;2024-01-27T04:27:39;102188.94;;;4.67;78.82
83492;BME280;73661;56.120;12.302;2024-01-27T04:30:06;102185.66;;;4.69;78.56
83492;BME280;73661;56.120;12.302;2024-01-27T04:32:32;102189.13;;;4.86;78.17
83492;BME280;73661;56.120;12.302;2024-01-27T04:34:58;102189.53;;;4.77;78.40
83492;BME280;73661;56.120;12.302;2024-01-27T04:37:24;102184.94;;;5.04;77.79
83492;BME280;73661;56.120;12.302;2024-01-27T04:39:49;102179.50;;;4.83;77.96
83492;BME280;73661;56.120;12.302;2024-01-27T04:42:15;102184.09;;;4.73;78.78
83492;BME280;73661;56.120;12.302;2024-01-27T04:44:42;102178.75;;;5.18;76.99
83492;BME280;73661;56.120;12.302;2024-01-27T04:47:08;102191.88;;;4.73;78.57
83492;BME280;73661;56.120;12.302;2024-01-27T04:49:34;102185.53;;;4.68;78.54
83492;BME280;73661;56.120;12.302;2024-01-27T04:51:59;102180.63;;;4.72;78.12
83492;BME280;73661;56.120;12.302;2024-01-27T04:54:25;102185.31;;;4.63;78.87
83492;BME280;73661;56.120;12.302;2024-01-27T04:56:51;102199.78;;;4.59;79.48
83492;BME280;73661;56.120;12.302;2024-01-27T04:59:17;102206.81;;;4.62;79.02
83492;BME280;73661;56.120;12.302;2024-01-27T05:01:46;102221.59;;;4.64;79.12
83492;BME280;73661;56.120;12.302;2024-01-27T05:04:12;102212.69;;;4.59;78.76
83492;BME280;73661;56.120;12.302;2024-01-27T05:06:38;102227.25;;;4.57;79.14
83492;BME280;73661;56.120;12.302;2024-01-27T05:09:05;102237.47;;;4.87;78.90
83492;BME280;73661;56.120;12.302;2024-01-27T05:11:33;102234.88;;;4.71;78.24
83492;BME280;73661;56.120;12.302;2024-01-27T05:14:00;102241.81;;;4.88;78.20
83492;BME280;73661;56.120;12.302;2024-01-27T05:16:27;102238.47;;;4.89;79.01
83492;BME280;73661;56.120;12.302;2024-01-27T05:18:53;102243.53;;;4.87;78.25
83492;BME280;73661;56.120;12.302;2024-01-27T05:21:19;102259.31;;;4.92;78.11
83492;BME280;73661;56.120;12.302;2024-01-27T05:23:44;102262.91;;;4.63;79.04
83492;BME280;73661;56.120;12.302;2024-01-27T05:26:10;102258.34;;;4.59;79.51
83492;BME280;73661;56.120;12.302;2024-01-27T05:28:39;102257.31;;;4.55;79.31
83492;BME280;73661;56.120;12.302;2024-01-27T05:31:08;102249.03;;;4.46;79.37
83492;BME280;73661;56.120;12.302;2024-01-27T05:33:35;102258.31;;;4.43;79.53
83492;BME280;73661;56.120;12.302;2024-01-27T05:36:01;102269.25;;;4.53;79.41
83492;BME280;73661;56.120;12.302;2024-01-27T05:38:27;102261.53;;;4.38;80.24
83492;BME280;73661;56.120;12.302;2024-01-27T05:40:55;102275.06;;;4.49;80.04
83492;BME280;73661;56.120;12.302;2024-01-27T05:43:21;102279.00;;;4.43;79.56
83492;BME280;73661;56.120;12.302;2024-01-27T05:45:48;102279.34;;;4.49;79.56
83492;BME280;73661;56.120;12.302;2024-01-27T05:48:14;102278.38;;;4.32;79.98
83492;BME280;73661;56.120;12.302;2024-01-27T05:50:42;102288.09;;;4.36;80.26
83492;BME280;73661;56.120;12.302;2024-01-27T05:53:08;102300.34;;;4.70;79.23
83492;BME280;73661;56.120;12.302;2024-01-27T05:55:34;102294.75;;;4.47;80.57
83492;BME280;73661;56.120;12.302;2024-01-27T05:57:59;102296.47;;;4.32;80.43
83492;BME280;73661;56.120;12.302;2024-01-27T06:00:25;102311.44;;;4.52;80.01
83492;BME280;73661;56.120;12.302;2024-01-27T06:02:51;102314.56;;;4.61;79.92
83492;BME280;73661;56.120;12.302;2024-01-27T06:05:17;102320.50;;;4.60;79.79
83492;BME280;73661;56.120;12.302;2024-01-27T06:07:42;102322.63;;;4.68;79.11
83492;BME280;73661;56.120;12.302;2024-01-27T06:10:09;102324.50;;;4.70;78.75
83492;BME280;73661;56.120;12.302;2024-01-27T06:12:37;102336.78;;;4.74;78.77
83492;BME280;73661;56.120;12.302;2024-01-27T06:15:03;102337.19;;;4.97;78.80
83492;BME280;73661;56.120;12.302;2024-01-27T06:17:29;102346.34;;;4.60;79.22
83492;BME280;73661;56.120;12.302;2024-01-27T06:19:55;102344.69;;;4.92;78.93
83492;BME280;73661;56.120;12.302;2024-01-27T06:22:21;102340.25;;;4.89;78.91
83492;BME280;73661;56.120;12.302;2024-01-27T06:24:46;102350.69;;;5.07;79.00
83492;BME280;73661;56.120;12.302;2024-01-27T06:27:12;102354.19;;;4.77;78.99
83492;BME280;73661;56.120;12.302;2024-01-27T06:29:38;102356.81;;;4.93;78.71
83492;BME280;73661;56.120;12.302;2024-01-27T06:32:06;102366.81;;;4.87;79.00
83492;BME280;73661;56.120;12.302;2024-01-27T06:34:32;102375.28;;;4.68;79.56
83492;BME280;73661;56.120;12.302;2024-01-27T06:36:58;102387.38;;;4.84;79.30
83492;BME280;73661;56.120;12.302;2024-01-27T06:39:24;102392.00;;;4.75;79.91
83492;BME280;73661;56.120;12.302;2024-01-27T06:41:50;102382.88;;;4.81;79.14
83492;BME280;73661;56.120;12.302;2024-01-27T06:44:16;102387.91;;;4.78;78.72
83492;BME280;73661;56.120;12.302;2024-01-27T06:46:41;102395.75;;;4.80;79.17
83492;BME280;73661;56.120;12.302;2024-01-27T06:49:07;102406.41;;;5.32;77.51
83492;BME280;73661;56.120;12.302;2024-01-27T06:51:32;102410.91;;;5.67;75.18
83492;BME280;73661;56.120;12.302;2024-01-27T06:53:58;102401.34;;;4.87;77.93
83492;BME280;73661;56.120;12.302;2024-01-27T06:56:24;102411.19;;;4.78;79.46
83492;BME280;73661;56.120;12.302;2024-01-27T06:58:50;102415.81;;;4.84;78.36
83492;BME280;73661;56.120;12.302;2024-01-27T07:01:16;102418.56;;;4.87;78.59
83492;BME280;73661;56.120;12.302;2024-01-27T07:03:42;102409.50;;;5.41;76.41
83492;BME280;73661;56.120;12.302;2024-01-27T07:06:10;102426.06;;;5.28;77.06
83492;BME280;73661;56.120;12.302;2024-01-27T07:08:35;102421.03;;;5.15;77.18
83492;BME280;73661;56.120;12.302;2024-01-27T07:11:01;102425.63;;;5.68;74.56
83492;BME280;73661;56.120;12.302;2024-01-27T07:13:27;102427.78;;;4.82;76.96
83492;BME280;73661;56.120;12.302;2024-01-27T07:15:55;102431.63;;;4.88;78.48
83492;BME280;73661;56.120;12.302;2024-01-27T07:18:21;102426.22;;;5.00;77.63
83492;BME280;73661;56.120;12.302;2024-01-27T07:20:47;102425.00;;;4.79;78.64
83492;BME280;73661;56.120;12.302;2024-01-27T07:23:13;102434.28;;;4.90;78.46
83492;BME280;73661;56.120;12.302;2024-01-27T07:25:39;102426.44;;;4.88;77.81
83492;BME280;73661;56.120;12.302;2024-01-27T07:28:05;102427.34;;;5.20;77.19
83492;BME280;73661;56.120;12.302;2024-01-27T07:30:30;102433.47;;;5.37;76.89
83492;BME280;73661;56.120;12.302;2024-01-27T07:32:57;102441.25;;;5.53;75.90
83492;BME280;73661;56.120;12.302;2024-01-27T07:35:22;102448.66;;;5.78;74.20
83492;BME280;73661;56.120;12.302;2024-01-27T07:37:48;102459.63;;;6.05;73.87
83492;BME280;73661;56.120;12.302;2024-01-27T07:40:14;102457.31;;;6.27;71.98
83492;BME280;73661;56.120;12.302;2024-01-27T07:42:40;102462.22;;;6.05;72.47
83492;BME280;73661;56.120;12.302;2024-01-27T07:45:07;102453.34;;;5.85;73.89
83492;BME280;73661;56.120;12.302;2024-01-27T07:47:34;102460.81;;;5.17;75.74
83492;BME280;73661;56.120;12.302;2024-01-27T07:50:00;102463.84;;;5.25;76.46
83492;BME280;73661;56.120;12.302;2024-01-27T07:52:26;102468.72;;;5.35;76.55
83492;BME280;73661;56.120;12.302;2024-01-27T07:54:51;102470.84;;;5.11;78.31
83492;BME280;73661;56.120;12.302;2024-01-27T07:57:18;102482.78;;;5.24;77.13
83492;BME280;73661;56.120;12.302;2024-01-27T07:59:44;102478.09;;;5.33;77.14
83492;BME280;73661;56.120;12.302;2024-01-27T08:02:10;102490.47;;;5.07;78.09
83492;BME280;73661;56.120;12.302;2024-01-27T08:04:35;102497.22;;;5.20;78.06
83492;BME280;73661;56.120;12.302;2024-01-27T08:07:03;102499.38;;;5.58;76.78
83492;BME280;73661;56.120;12.302;2024-01-27T08:09:35;102508.31;;;5.17;78.02
83492;BME280;73661;56.120;12.302;2024-01-27T08:12:01;102512.56;;;5.32;78.03
83492;BME280;73661;56.120;12.302;2024-01-27T08:14:30;102512.09;;;5.39;77.55
83492;BME280;73661;56.120;12.302;2024-01-27T08:16:56;102515.19;;;5.48;77.23
83492;BME280;73661;56.120;12.302;2024-01-27T08:19:24;102518.34;;;5.73;76.14
83492;BME280;73661;56.120;12.302;2024-01-27T08:21:50;102525.88;;;5.69;75.66
83492;BME280;73661;56.120;12.302;2024-01-27T08:24:16;102526.88;;;6.02;76.48
83492;BME280;73661;56.120;12.302;2024-01-27T08:26:42;102515.94;;;5.77;75.81
83492;BME280;73661;56.120;12.302;2024-01-27T08:29:10;102522.09;;;5.79;76.35
83492;BME280;73661;56.120;12.302;2024-01-27T08:31:36;102520.19;;;5.91;75.83
83492;BME280;73661;56.120;12.302;2024-01-27T08:34:05;102531.31;;;5.73;77.46
83492;BME280;73661;56.120;12.302;2024-01-27T08:36:30;102527.75;;;5.88;77.06
83492;BME280;73661;56.120;12.302;2024-01-27T08:38:56;102533.66;;;6.00;76.92
83492;BME280;73661;56.120;12.302;2024-01-27T08:41:22;102538.38;;;6.23;75.90
83492;BME280;73661;56.120;12.302;2024-01-27T08:43:48;102531.09;;;6.16;76.23
83492;BME280;73661;56.120;12.302;2024-01-27T08:46:14;102551.25;;;6.71;74.62
83492;BME280;73661;56.120;12.302;2024-01-27T08:48:40;102552.47;;;6.45;75.09
83492;BME280;73661;56.120;12.302;2024-01-27T08:51:10;102556.19;;;6.66;74.28
83492;BME280;73661;56.120;12.302;2024-01-27T08:53:36;102564.06;;;6.51;74.46
83492;BME280;73661;56.120;12.302;2024-01-27T08:56:01;102570.88;;;6.66;73.89
83492;BME280;73661;56.120;12.302;2024-01-27T08:58:27;102581.13;;;6.80;73.38
83492;BME280;73661;56.120;12.302;2024-01-27T09:00:53;102575.22;;;6.83;72.86
83492;BME280;73661;56.120;12.302;2024-01-27T09:03:19;102579.34;;;6.79;73.54
83492;BME280;73661;56.120;12.302;2024-01-27T09:05:46;102582.13;;;7.17;72.52
83492;BME280;73661;56.120;12.302;2024-01-27T09:08:13;102591.19;;;6.74;74.25
83492;BME280;73661;56.120;12.302;2024-01-27T09:10:38;102595.09;;;6.82;74.03
83492;BME280;73661;56.120;12.302;2024-01-27T09:13:04;102601.75;;;6.77;73.79
83492;BME280;73661;56.120;12.302;2024-01-27T09:15:31;102596.91;;;6.51;74.17
83492;BME280;73661;56.120;12.302;2024-01-27T09:17:56;102602.03;;;7.16;72.95
83492;BME280;73661;56.120;12.302;2024-01-27T09:20:22;102600.81;;;7.09;73.06
83492;BME280;73661;56.120;12.302;2024-01-27T09:22:48;102593.47;;;7.19;72.66
83492;BME280;73661;56.120;12.302;2024-01-27T09:25:16;102598.75;;;7.20;72.21
83492;BME280;73661;56.120;12.302;2024-01-27T09:27:42;102603.00;;;7.02;73.19
83492;BME280;73661;56.120;12.302;2024-01-27T09:30:08;102595.22;;;7.54;71.67
83492;BME280;73661;56.120;12.302;2024-01-27T09:32:34;102594.69;;;7.25;72.70
83492;BME280;73661;56.120;12.302;2024-01-27T09:35:00;102597.88;;;7.37;71.66
83492;BME280;73661;56.120;12.302;2024-01-27T09:37:26;102594.47;;;7.38;72.00
83492;BME280;73661;56.120;12.302;2024-01-27T09:39:51;102590.91;;;7.36;70.70
83492;BME280;73661;56.120;12.302;2024-01-27T09:42:20;102592.19;;;7.45;71.03
83492;BME280;73661;56.120;12.302;2024-01-27T09:44:48;102604.88;;;7.38;71.26
83492;BME280;73661;56.120;12.302;2024-01-27T09:47:17;102606.88;;;7.98;69.60
83492;BME280;73661;56.120;12.302;2024-01-27T09:49:43;102598.47;;;7.85;69.77
83492;BME280;73661;56.120;12.302;2024-01-27T09:52:10;102610.88;;;7.37;70.64
83492;BME280;73661;56.120;12.302;2024-01-27T09:54:36;102601.44;;;7.93;69.78
83492;BME280;73661;56.120;12.302;2024-01-27T09:57:02;102612.16;;;7.46;70.64
83492;BME280;73661;56.120;12.302;2024-01-27T09:59:29;102617.50;;;7.84;69.55
83492;BME280;73661;56.120;12.302;2024-01-27T10:01:57;102609.19;;;7.91;69.70
83492;BME280;73661;56.120;12.302;2024-01-27T10:04:24;102610.81;;;7.54;69.42
83492;BME280;73661;56.120;12.302;2024-01-27T10:06:50;102617.63;;;7.34;71.55
83492;BME280;73661;56.120;12.302;2024-01-27T10:09:17;102624.69;;;7.54;70.43
83492;BME280;73661;56.120;12.302;2024-01-27T10:11:46;102624.00;;;7.41;70.80
83492;BME280;73661;56.120;12.302;2024-01-27T10:14:15;102628.13;;;7.19;72.36
83492;BME280;73661;56.120;12.302;2024-01-27T10:16:44;102618.94;;;7.26;71.60
83492;BME280;73661;56.120;12.302;2024-01-27T10:19:23;102620.53;;;7.06;70.98
83492;BME280;73661;56.120;12.302;2024-01-27T10:22:00;102622.22;;;7.40;70.67
83492;BME280;73661;56.120;12.302;2024-01-27T10:24:28;102616.16;;;7.57;70.57
83492;BME280;73661;56.120;12.302;2024-01-27T10:27:03;102628.66;;;7.64;70.73
83492;BME280;73661;56.120;12.302;2024-01-27T10:29:33;102635.78;;;8.04;69.34
83492;BME280;73661;56.120;12.302;2024-01-27T10:32:11;102642.03;;;7.89;69.83
83492;BME280;73661;56.120;12.302;2024-01-27T10:34:36;102646.75;;;8.16;68.88
83492;BME280;73661;56.120;12.302;2024-01-27T10:37:02;102648.22;;;7.75;69.36
83492;BME280;73661;56.120;12.302;2024-01-27T10:39:28;102645.00;;;7.97;69.40
83492;BME280;73661;56.120;12.302;2024-01-27T10:41:54;102651.91;;;7.97;68.89
83492;BME280;73661;56.120;12.302;2024-01-27T10:44:20;102651.66;;;7.74;69.75
83492;BME280;73661;56.120;12.302;2024-01-27T10:46:48;102659.53;;;7.58;70.60
83492;BME280;73661;56.120;12.302;2024-01-27T10:49:16;102662.81;;;7.72;69.72
83492;BME280;73661;56.120;12.302;2024-01-27T10:52:01;102658.63;;;7.75;70.26
83492;BME280;73661;56.120;12.302;2024-01-27T10:54:33;102667.13;;;7.71;70.42
83492;BME280;73661;56.120;12.302;2024-01-27T10:56:59;102660.53;;;8.33;68.56
83492;BME280;73661;56.120;12.302;2024-01-27T10:59:27;102673.94;;;8.40;68.37
83492;BME280;73661;56.120;12.302;2024-01-27T11:01:54;102667.19;;;7.90;68.75
83492;BME280;73661;56.120;12.302;2024-01-27T11:04:21;102661.13;;;8.27;68.66
83492;BME280;73661;56.120;12.302;2024-01-27T11:06:48;102665.75;;;8.51;67.67
83492;BME280;73661;56.120;12.302;2024-01-27T11:09:15;102670.94;;;8.89;66.79
83492;BME280;73661;56.120;12.302;2024-01-27T11:11:42;102664.03;;;9.09;65.95
83492;BME280;73661;56.120;12.302;2024-01-27T11:14:10;102672.84;;;9.32;64.84
83492;BME280;73661;56.120;12.302;2024-01-27T11:16:37;102659.44;;;9.23;65.23
83492;BME280;73661;56.120;12.302;2024-01-27T11:19:11;102669.19;;;8.50;67.46
83492;BME280;73661;56.120;12.302;2024-01-27T11:21:39;102676.81;;;8.46;66.87
83492;BME280;73661;56.120;12.302;2024-01-27T11:24:16;102679.66;;;8.51;67.75
83492;BME280;73661;56.120;12.302;2024-01-27T11:26:42;102688.28;;;7.79;69.42
83492;BME280;73661;56.120;12.302;2024-01-27T11:29:08;102679.28;;;8.08;69.58
83492;BME280;73661;56.120;12.302;2024-01-27T11:31:54;102686.56;;;8.33;68.15
83492;BME280;73661;56.120;12.302;2024-01-27T11:34:21;102686.41;;;8.48;68.49
83492;BME280;73661;56.120;12.302;2024-01-27T11:36:47;102686.44;;;8.30;68.18
83492;BME280;73661;56.120;12.302;2024-01-27T11:39:27;102695.47;;;8.02;69.94
83492;BME280;73661;56.120;12.302;2024-01-27T11:42:03;102699.97;;;8.23;67.80
83492;BME280;73661;56.120;12.302;2024-01-27T11:44:30;102698.53;;;8.29;68.31
83492;BME280;73661;56.120;12.302;2024-01-27T11:46:56;102701.72;;;8.41;68.04
83492;BME280;73661;56.120;12.302;2024-01-27T11:49:22;102709.47;;;8.04;69.00
83492;BME280;73661;56.120;12.302;2024-01-27T11:51:49;102699.75;;;8.18;68.93
83492;BME280;73661;56.120;12.302;2024-01-27T11:54:14;102691.81;;;8.34;68.40
83492;BME280;73661;56.120;12.302;2024-01-27T11:56:40;102696.25;;;8.35;68.88
83492;BME280;73661;56.120;12.302;2024-01-27T11:59:06;102704.50;;;8.44;68.11
83492;BME280;73661;56.120;12.302;2024-01-27T12:01:31;102706.97;;;8.98;66.68
83492;BME280;73661;56.120;12.302;2024-01-27T12:03:57;102710.66;;;8.84;66.67
83492;BME280;73661;56.120;12.302;2024-01-27T12:06:23;102714.47;;;9.31;65.68
83492;BME280;73661;56.120;12.302;2024-01-27T12:08:53;102701.25;;;9.26;64.98
83492;BME280;73661;56.120;12.302;2024-01-27T12:11:18;102701.97;;;8.83;66.09
83492;BME280;73661;56.120;12.302;2024-01-27T12:13:44;102703.25;;;8.93;66.19
83492;BME280;73661;56.120;12.302;2024-01-27T12:16:10;102714.66;;;9.35;64.96
83492;BME280;73661;56.120;12.302;2024-01-27T12:18:36;102711.72;;;9.27;65.11
83492;BME280;73661;56.120;12.302;2024-01-27T12:21:02;102709.38;;;9.74;63.83
83492;BME280;73661;56.120;12.302;2024-01-27T12:23:28;102711.16;;;9.35;64.07
83492;BME280;73661;56.120;12.302;2024-01-27T12:25:55;102706.16;;;10.23;62.01
83492;BME280;73661;56.120;12.302;2024-01-27T12:28:23;102710.13;;;9.71;63.06
83492;BME280;73661;56.120;12.302;2024-01-27T12:30:53;102707.94;;;9.40;63.53
83492;BME280;73661;56.120;12.302;2024-01-27T12:33:19;102718.31;;;9.60;63.84
83492;BME280;73661;56.120;12.302;2024-01-27T12:35:50;102727.88;;;9.59;63.75
83492;BME280;73661;56.120;12.302;2024-01-27T12:38:19;102726.34;;;9.24;64.35
83492;BME280;73661;56.120;12.302;2024-01-27T12:40:45;102736.34;;;9.34;64.97
83492;BME280;73661;56.120;12.302;2024-01-27T12:43:11;102737.69;;;9.65;63.31
83492;BME280;73661;56.120;12.302;2024-01-27T12:45:37;102748.78;;;9.61;64.26
83492;BME280;73661;56.120;12.302;2024-01-27T12:48:03;102750.03;;;9.49;64.19